sensor_id;sensor_type;location;lat;lon;timestamp;temperature;humidity
24382;DHT22;12502;50.678;7.172;2023-04-03T00:04:19;5.00;99.90
24382;DHT22;12502;50.678;7.172;2023-04-03T00:09:20;4.90;99.90
24382;DHT22;12502;50.678;7.172;2023-04-03T00:14:22;4.90;99.90
24382;DHT22;12502;50.678;7.172;2023-04-03T00:19:24;4.90;99.90
24382;DHT22;12502;50.678;7.172;2023-04-03T00:24:25;4.90;99.90
24382;DHT22;12502;50.678;7.172;2023-04-03T00:29:27;4.90;99.90
24382;DHT22;12502;50.678;7.172;2023-04-03T00:34:28;4.90;99.90
24382;DHT22;12502;50.678;7.172;2023-04-03T00:39:30;4.90;99.90
24382;DHT22;12502;50.678;7.172;2023-04-03T00:49:34;4.80;99.90
24382;DHT22;12502;50.678;7.172;2023-04-03T00:54:37;4.90;99.90
24382;DHT22;12502;50.678;7.172;2023-04-03T00:59:39;4.80;99.90
24382;DHT22;12502;50.678;7.172;2023-04-03T01:04:43;4.80;99.90
24382;DHT22;12502;50.678;7.172;2023-04-03T01:09:45;4.80;99.90
24382;DHT22;12502;50.678;7.172;2023-04-03T01:14:49;4.80;99.90
24382;DHT22;12502;50.678;7.172;2023-04-03T01:19:54;4.70;99.90
24382;DHT22;12502;50.678;7.172;2023-04-03T01:25:01;4.70;99.90
24382;DHT22;12502;50.678;7.172;2023-04-03T01:30:03;4.60;99.90
24382;DHT22;12502;50.678;7.172;2023-04-03T01:35:06;4.60;99.90
24382;DHT22;12502;50.678;7.172;2023-04-03T01:40:08;4.50;99.90
24382;DHT22;12502;50.678;7.172;2023-04-03T01:45:10;4.60;99.90
24382;DHT22;12502;50.678;7.172;2023-04-03T01:50:12;4.60;99.90
24382;DHT22;12502;50.678;7.172;2023-04-03T01:55:13;4.50;99.90
24382;DHT22;12502;50.678;7.172;2023-04-03T02:00:15;4.50;99.90
24382;DHT22;12502;50.678;7.172;2023-04-03T02:05:17;4.50;99.90
24382;DHT22;12502;50.678;7.172;2023-04-03T02:10:18;4.50;99.90
24382;DHT22;12502;50.678;7.172;2023-04-03T02:15:20;4.40;99.90
24382;DHT22;12502;50.678;7.172;2023-04-03T02:20:22;4.40;99.90
24382;DHT22;12502;50.678;7.172;2023-04-03T02:25:23;4.40;99.90
24382;DHT22;12502;50.678;7.172;2023-04-03T02:30:25;4.40;99.90
24382;DHT22;12502;50.678;7.172;2023-04-03T02:35:27;4.40;99.90
24382;DHT22;12502;50.678;7.172;2023-04-03T02:40:29;4.40;99.90
24382;DHT22;12502;50.678;7.172;2023-04-03T02:45:30;4.40;99.90
24382;DHT22;12502;50.678;7.172;2023-04-03T02:50:32;4.40;99.90
24382;DHT22;12502;50.678;7.172;2023-04-03T02:55:34;4.40;99.90
24382;DHT22;12502;50.678;7.172;2023-04-03T03:00:36;4.30;99.90
24382;DHT22;12502;50.678;7.172;2023-04-03T03:05:38;4.20;99.90
24382;DHT22;12502;50.678;7.172;2023-04-03T03:10:39;4.10;99.90
24382;DHT22;12502;50.678;7.172;2023-04-03T03:15:41;4.20;99.90
24382;DHT22;12502;50.678;7.172;2023-04-03T03:20:43;4.00;99.90
24382;DHT22;12502;50.678;7.172;2023-04-03T03:25:44;4.00;99.90
24382;DHT22;12502;50.678;7.172;2023-04-03T03:30:46;3.90;99.90
24382;DHT22;12502;50.678;7.172;2023-04-03T03:35:48;3.80;99.90
24382;DHT22;12502;50.678;7.172;2023-04-03T03:40:50;3.70;99.90
24382;DHT22;12502;50.678;7.172;2023-04-03T03:45:52;3.70;99.90
24382;DHT22;12502;50.678;7.172;2023-04-03T03:50:54;3.60;99.90
24382;DHT22;12502;50.678;7.172;2023-04-03T03:55:55;3.60;99.90
24382;DHT22;12502;50.678;7.172;2023-04-03T04:01:00;3.60;99.90
24382;DHT22;12502;50.678;7.172;2023-04-03T04:06:01;3.60;99.90
24382;DHT22;12502;50.678;7.172;2023-04-03T04:11:03;3.40;99.90
24382;DHT22;12502;50.678;7.172;2023-04-03T04:16:05;3.30;99.90
24382;DHT22;12502;50.678;7.172;2023-04-03T04:21:07;3.30;99.90
24382;DHT22;12502;50.678;7.172;2023-04-03T04:26:08;3.20;99.90
24382;DHT22;12502;50.678;7.172;2023-04-03T04:31:10;3.10;99.90
24382;DHT22;12502;50.678;7.172;2023-04-03T04:36:12;3.10;99.90
24382;DHT22;12502;50.678;7.172;2023-04-03T04:41:14;3.00;99.90
24382;DHT22;12502;50.678;7.172;2023-04-03T04:46:16;3.10;99.90
24382;DHT22;12502;50.678;7.172;2023-04-03T04:51:17;3.20;99.90
24382;DHT22;12502;50.678;7.172;2023-04-03T04:56:19;3.20;99.90
24382;DHT22;12502;50.678;7.172;2023-04-03T05:01:22;3.20;99.90
24382;DHT22;12502;50.678;7.172;2023-04-03T05:06:23;3.20;99.90
24382;DHT22;12502;50.678;7.172;2023-04-03T05:11:25;3.10;99.90
24382;DHT22;12502;50.678;7.172;2023-04-03T05:16:27;3.10;99.90
24382;DHT22;12502;50.678;7.172;2023-04-03T05:21:29;3.00;99.90
24382;DHT22;12502;50.678;7.172;2023-04-03T05:26:33;2.90;99.90
24382;DHT22;12502;50.678;7.172;2023-04-03T05:31:35;2.90;99.90
24382;DHT22;12502;50.678;7.172;2023-04-03T05:36:37;2.90;99.90
24382;DHT22;12502;50.678;7.172;2023-04-03T05:41:39;2.80;99.90
24382;DHT22;12502;50.678;7.172;2023-04-03T05:46:41;2.70;99.90
24382;DHT22;12502;50.678;7.172;2023-04-03T05:51:42;2.80;99.90
24382;DHT22;12502;50.678;7.172;2023-04-03T05:56:46;2.70;99.90
24382;DHT22;12502;50.678;7.172;2023-04-03T06:01:47;2.80;99.90
24382;DHT22;12502;50.678;7.172;2023-04-03T06:06:50;2.90;99.90
24382;DHT22;12502;50.678;7.172;2023-04-03T06:11:55;2.90;99.90
24382;DHT22;12502;50.678;7.172;2023-04-03T06:16:57;3.00;99.90
24382;DHT22;12502;50.678;7.172;2023-04-03T06:21:59;3.10;99.90
24382;DHT22;12502;50.678;7.172;2023-04-03T06:27:00;3.30;99.90
24382;DHT22;12502;50.678;7.172;2023-04-03T06:32:02;3.40;99.90
24382;DHT22;12502;50.678;7.172;2023-04-03T06:37:04;3.50;99.90
24382;DHT22;12502;50.678;7.172;2023-04-03T06:42:05;3.60;99.90
24382;DHT22;12502;50.678;7.172;2023-04-03T06:47:09;3.70;99.90
24382;DHT22;12502;50.678;7.172;2023-04-03T06:52:11;3.90;99.90
24382;DHT22;12502;50.678;7.172;2023-04-03T06:57:13;4.00;99.90
24382;DHT22;12502;50.678;7.172;2023-04-03T07:02:16;4.00;99.90
24382;DHT22;12502;50.678;7.172;2023-04-03T07:07:18;4.30;99.90
24382;DHT22;12502;50.678;7.172;2023-04-03T07:12:20;4.50;99.90
24382;DHT22;12502;50.678;7.172;2023-04-03T07:17:22;4.70;99.90
24382;DHT22;12502;50.678;7.172;2023-04-03T07:22:23;4.90;99.90
24382;DHT22;12502;50.678;7.172;2023-04-03T07:27:25;5.00;99.90
24382;DHT22;12502;50.678;7.172;2023-04-03T07:32:27;5.00;99.90
24382;DHT22;12502;50.678;7.172;2023-04-03T07:37:28;5.40;99.90
24382;DHT22;12502;50.678;7.172;2023-04-03T07:42:30;5.10;99.90
24382;DHT22;12502;50.678;7.172;2023-04-03T07:47:32;5.50;99.90
24382;DHT22;12502;50.678;7.172;2023-04-03T07:52:33;5.50;99.90
24382;DHT22;12502;50.678;7.172;2023-04-03T07:57:35;5.60;99.90
24382;DHT22;12502;50.678;7.172;2023-04-03T08:02:37;5.70;99.90
24382;DHT22;12502;50.678;7.172;2023-04-03T08:07:39;5.70;99.90
24382;DHT22;12502;50.678;7.172;2023-04-03T08:12:41;6.10;99.90
24382;DHT22;12502;50.678;7.172;2023-04-03T08:17:43;6.40;99.90
24382;DHT22;12502;50.678;7.172;2023-04-03T08:22:44;6.60;99.90
24382;DHT22;12502;50.678;7.172;2023-04-03T08:27:46;6.60;99.90
24382;DHT22;12502;50.678;7.172;2023-04-03T08:32:48;6.80;99.90
24382;DHT22;12502;50.678;7.172;2023-04-03T08:37:49;7.10;99.90
24382;DHT22;12502;50.678;7.172;2023-04-03T08:53:15;7.60;99.90
24382;DHT22;12502;50.678;7.172;2023-04-03T09:03:28;7.60;99.90
24382;DHT22;12502;50.678;7.172;2023-04-03T09:08:37;8.20;99.90
24382;DHT22;12502;50.678;7.172;2023-04-03T09:13:47;8.30;99.90
24382;DHT22;12502;50.678;7.172;2023-04-03T09:18:53;8.20;99.90
24382;DHT22;12502;50.678;7.172;2023-04-03T09:23:58;8.20;99.90
24382;DHT22;12502;50.678;7.172;2023-04-03T09:29:02;8.50;99.90
24382;DHT22;12502;50.678;7.172;2023-04-03T09:34:08;8.50;99.90
24382;DHT22;12502;50.678;7.172;2023-04-03T09:39:12;8.80;99.90
24382;DHT22;12502;50.678;7.172;2023-04-03T09:44:20;8.40;99.90
24382;DHT22;12502;50.678;7.172;2023-04-03T09:49:22;8.30;97.40
24382;DHT22;12502;50.678;7.172;2023-04-03T09:54:34;8.60;99.10
24382;DHT22;12502;50.678;7.172;2023-04-03T09:59:56;8.50;97.10
24382;DHT22;12502;50.678;7.172;2023-04-03T10:04:59;8.80;95.70
24382;DHT22;12502;50.678;7.172;2023-04-03T10:10:21;8.40;99.70
24382;DHT22;12502;50.678;7.172;2023-04-03T10:15:24;9.00;96.20
24382;DHT22;12502;50.678;7.172;2023-04-03T10:20:36;8.80;93.50
24382;DHT22;12502;50.678;7.172;2023-04-03T10:36:06;8.80;91.10
24382;DHT22;12502;50.678;7.172;2023-04-03T10:41:22;8.90;87.80
24382;DHT22;12502;50.678;7.172;2023-04-03T10:51:39;9.60;90.60
24382;DHT22;12502;50.678;7.172;2023-04-03T10:57:01;9.40;85.00
24382;DHT22;12502;50.678;7.172;2023-04-03T11:02:19;9.40;86.80
24382;DHT22;12502;50.678;7.172;2023-04-03T11:07:25;9.80;87.00
24382;DHT22;12502;50.678;7.172;2023-04-03T11:17:38;9.70;85.80
24382;DHT22;12502;50.678;7.172;2023-04-03T11:22:42;9.50;83.30
24382;DHT22;12502;50.678;7.172;2023-04-03T11:27:45;9.80;82.70
24382;DHT22;12502;50.678;7.172;2023-04-03T11:32:52;9.60;84.60
24382;DHT22;12502;50.678;7.172;2023-04-03T11:37:57;9.10;80.80
24382;DHT22;12502;50.678;7.172;2023-04-03T11:43:06;10.00;82.90
24382;DHT22;12502;50.678;7.172;2023-04-03T11:58:29;10.00;79.60
24382;DHT22;12502;50.678;7.172;2023-04-03T12:04:18;9.80;80.10
24382;DHT22;12502;50.678;7.172;2023-04-03T12:08:53;10.00;79.60
24382;DHT22;12502;50.678;7.172;2023-04-03T12:19:00;10.40;76.50
24382;DHT22;12502;50.678;7.172;2023-04-03T12:24:26;10.60;77.80
24382;DHT22;12502;50.678;7.172;2023-04-03T12:34:40;10.00;75.30
24382;DHT22;12502;50.678;7.172;2023-04-03T12:39:45;10.10;75.90
24382;DHT22;12502;50.678;7.172;2023-04-03T12:45:01;10.50;75.40
24382;DHT22;12502;50.678;7.172;2023-04-03T12:50:16;10.50;73.00
24382;DHT22;12502;50.678;7.172;2023-04-03T12:55:19;11.00;73.90
24382;DHT22;12502;50.678;7.172;2023-04-03T13:05:28;11.00;72.40
24382;DHT22;12502;50.678;7.172;2023-04-03T13:10:31;10.90;73.60
24382;DHT22;12502;50.678;7.172;2023-04-03T13:15:40;11.10;74.10
24382;DHT22;12502;50.678;7.172;2023-04-03T13:20:42;11.30;71.00
24382;DHT22;12502;50.678;7.172;2023-04-03T13:25:44;10.00;69.40
24382;DHT22;12502;50.678;7.172;2023-04-03T13:30:58;10.50;71.50
24382;DHT22;12502;50.678;7.172;2023-04-03T13:36:05;11.30;73.60
24382;DHT22;12502;50.678;7.172;2023-04-03T13:41:27;11.30;72.20
24382;DHT22;12502;50.678;7.172;2023-04-03T13:46:30;11.00;71.90
24382;DHT22;12502;50.678;7.172;2023-04-03T13:51:32;11.20;73.60
24382;DHT22;12502;50.678;7.172;2023-04-03T13:56:35;11.00;74.50
24382;DHT22;12502;50.678;7.172;2023-04-03T14:06:43;10.80;73.50
24382;DHT22;12502;50.678;7.172;2023-04-03T14:11:46;10.60;73.50
24382;DHT22;12502;50.678;7.172;2023-04-03T14:16:53;10.50;72.20
24382;DHT22;12502;50.678;7.172;2023-04-03T14:21:55;10.30;72.20
24382;DHT22;12502;50.678;7.172;2023-04-03T14:26:57;10.60;74.60
24382;DHT22;12502;50.678;7.172;2023-04-03T14:31:59;10.20;72.60
24382;DHT22;12502;50.678;7.172;2023-04-03T14:37:16;10.50;74.90
24382;DHT22;12502;50.678;7.172;2023-04-03T14:42:22;10.60;75.80
24382;DHT22;12502;50.678;7.172;2023-04-03T14:47:24;10.10;74.40
24382;DHT22;12502;50.678;7.172;2023-04-03T14:52:34;9.90;76.80
24382;DHT22;12502;50.678;7.172;2023-04-03T14:57:36;10.00;76.00
24382;DHT22;12502;50.678;7.172;2023-04-03T15:02:39;10.30;77.10
24382;DHT22;12502;50.678;7.172;2023-04-03T15:08:03;10.10;75.20
24382;DHT22;12502;50.678;7.172;2023-04-03T15:13:03;10.40;75.10
24382;DHT22;12502;50.678;7.172;2023-04-03T15:18:05;9.70;73.00
24382;DHT22;12502;50.678;7.172;2023-04-03T15:23:07;10.00;73.70
24382;DHT22;12502;50.678;7.172;2023-04-03T15:28:09;10.00;74.40
24382;DHT22;12502;50.678;7.172;2023-04-03T15:33:13;9.70;74.00
24382;DHT22;12502;50.678;7.172;2023-04-03T15:38:16;9.80;74.80
24382;DHT22;12502;50.678;7.172;2023-04-03T15:43:18;9.80;74.60
24382;DHT22;12502;50.678;7.172;2023-04-03T15:48:20;9.80;76.20
24382;DHT22;12502;50.678;7.172;2023-04-03T15:53:21;9.80;76.40
24382;DHT22;12502;50.678;7.172;2023-04-03T15:58:23;9.60;74.50
24382;DHT22;12502;50.678;7.172;2023-04-03T16:03:25;9.60;74.50
24382;DHT22;12502;50.678;7.172;2023-04-03T16:08:26;9.60;74.20
24382;DHT22;12502;50.678;7.172;2023-04-03T16:13:28;9.60;76.50
24382;DHT22;12502;50.678;7.172;2023-04-03T16:18:30;9.60;76.40
24382;DHT22;12502;50.678;7.172;2023-04-03T16:23:32;9.40;75.50
24382;DHT22;12502;50.678;7.172;2023-04-03T16:28:33;9.40;76.10
24382;DHT22;12502;50.678;7.172;2023-04-03T16:33:35;9.50;75.30
24382;DHT22;12502;50.678;7.172;2023-04-03T16:38:38;9.30;74.00
24382;DHT22;12502;50.678;7.172;2023-04-03T16:43:39;9.20;74.50
24382;DHT22;12502;50.678;7.172;2023-04-03T16:48:41;9.10;73.80
24382;DHT22;12502;50.678;7.172;2023-04-03T16:53:43;9.10;74.30
24382;DHT22;12502;50.678;7.172;2023-04-03T16:58:45;9.20;75.80
24382;DHT22;12502;50.678;7.172;2023-04-03T17:03:47;9.10;76.10
24382;DHT22;12502;50.678;7.172;2023-04-03T17:08:49;9.00;77.30
24382;DHT22;12502;50.678;7.172;2023-04-03T17:13:54;8.90;78.10
24382;DHT22;12502;50.678;7.172;2023-04-03T17:18:56;8.80;78.50
24382;DHT22;12502;50.678;7.172;2023-04-03T17:23:58;8.70;78.20
24382;DHT22;12502;50.678;7.172;2023-04-03T17:29:02;8.60;79.10
24382;DHT22;12502;50.678;7.172;2023-04-03T17:34:06;8.40;76.30
24382;DHT22;12502;50.678;7.172;2023-04-03T17:39:07;8.40;77.10
24382;DHT22;12502;50.678;7.172;2023-04-03T17:44:09;8.30;78.50
24382;DHT22;12502;50.678;7.172;2023-04-03T17:49:11;8.20;79.10
24382;DHT22;12502;50.678;7.172;2023-04-03T17:54:15;8.10;79.60
24382;DHT22;12502;50.678;7.172;2023-04-03T17:59:17;7.90;80.30
24382;DHT22;12502;50.678;7.172;2023-04-03T18:04:19;7.80;80.80
24382;DHT22;12502;50.678;7.172;2023-04-03T18:09:23;7.70;81.10
24382;DHT22;12502;50.678;7.172;2023-04-03T18:14:25;7.60;80.30
24382;DHT22;12502;50.678;7.172;2023-04-03T18:19:27;7.50;82.80
24382;DHT22;12502;50.678;7.172;2023-04-03T18:24:31;7.40;82.50
24382;DHT22;12502;50.678;7.172;2023-04-03T18:29:34;7.30;83.30
24382;DHT22;12502;50.678;7.172;2023-04-03T18:34:36;7.20;83.90
24382;DHT22;12502;50.678;7.172;2023-04-03T18:39:38;7.10;84.90
24382;DHT22;12502;50.678;7.172;2023-04-03T18:44:41;7.10;85.60
24382;DHT22;12502;50.678;7.172;2023-04-03T18:49:43;6.90;86.10
24382;DHT22;12502;50.678;7.172;2023-04-03T18:54:45;6.60;88.10
24382;DHT22;12502;50.678;7.172;2023-04-03T18:59:46;6.70;86.30
24382;DHT22;12502;50.678;7.172;2023-04-03T19:04:48;6.60;86.50
24382;DHT22;12502;50.678;7.172;2023-04-03T19:09:50;6.60;87.20
24382;DHT22;12502;50.678;7.172;2023-04-03T19:14:51;6.50;88.00
24382;DHT22;12502;50.678;7.172;2023-04-03T19:19:53;6.50;88.20
24382;DHT22;12502;50.678;7.172;2023-04-03T19:24:58;6.40;88.80
24382;DHT22;12502;50.678;7.172;2023-04-03T19:29:59;6.30;90.20
24382;DHT22;12502;50.678;7.172;2023-04-03T19:35:01;6.20;90.10
24382;DHT22;12502;50.678;7.172;2023-04-03T19:40:03;6.20;90.80
24382;DHT22;12502;50.678;7.172;2023-04-03T19:45:05;6.00;91.60
24382;DHT22;12502;50.678;7.172;2023-04-03T19:50:07;5.90;91.70
24382;DHT22;12502;50.678;7.172;2023-04-03T19:55:09;5.80;91.50
24382;DHT22;12502;50.678;7.172;2023-04-03T20:00:11;5.80;91.40
24382;DHT22;12502;50.678;7.172;2023-04-03T20:05:14;5.70;92.20
24382;DHT22;12502;50.678;7.172;2023-04-03T20:10:15;5.70;91.60
24382;DHT22;12502;50.678;7.172;2023-04-03T20:15:17;5.60;92.20
24382;DHT22;12502;50.678;7.172;2023-04-03T20:20:19;5.60;92.30
24382;DHT22;12502;50.678;7.172;2023-04-03T20:25:21;5.50;92.70
24382;DHT22;12502;50.678;7.172;2023-04-03T20:30:46;5.40;93.50
24382;DHT22;12502;50.678;7.172;2023-04-03T20:35:48;5.40;92.60
24382;DHT22;12502;50.678;7.172;2023-04-03T20:40:50;5.30;93.60
24382;DHT22;12502;50.678;7.172;2023-04-03T20:45:52;5.20;93.80
24382;DHT22;12502;50.678;7.172;2023-04-03T20:50:54;5.10;94.60
24382;DHT22;12502;50.678;7.172;2023-04-03T20:55:56;5.00;95.30
24382;DHT22;12502;50.678;7.172;2023-04-03T21:01:01;5.00;95.10
24382;DHT22;12502;50.678;7.172;2023-04-03T21:21:45;4.60;96.80
24382;DHT22;12502;50.678;7.172;2023-04-03T21:26:47;4.60;96.20
24382;DHT22;12502;50.678;7.172;2023-04-03T21:36:54;4.40;97.20
24382;DHT22;12502;50.678;7.172;2023-04-03T21:41:56;4.30;98.50
24382;DHT22;12502;50.678;7.172;2023-04-03T21:46:58;4.30;98.70
24382;DHT22;12502;50.678;7.172;2023-04-03T21:52:00;4.20;98.60
24382;DHT22;12502;50.678;7.172;2023-04-03T21:57:02;4.10;99.90
24382;DHT22;12502;50.678;7.172;2023-04-03T22:02:03;4.00;99.90
24382;DHT22;12502;50.678;7.172;2023-04-03T22:07:05;4.00;99.90
24382;DHT22;12502;50.678;7.172;2023-04-03T22:12:06;3.80;99.90
24382;DHT22;12502;50.678;7.172;2023-04-03T22:17:09;3.80;99.90
24382;DHT22;12502;50.678;7.172;2023-04-03T22:22:10;3.80;99.90
24382;DHT22;12502;50.678;7.172;2023-04-03T22:27:12;3.80;99.90
24382;DHT22;12502;50.678;7.172;2023-04-03T22:32:14;3.70;99.90
24382;DHT22;12502;50.678;7.172;2023-04-03T22:37:16;3.60;99.90
24382;DHT22;12502;50.678;7.172;2023-04-03T22:42:18;3.50;99.90
24382;DHT22;12502;50.678;7.172;2023-04-03T22:47:20;3.40;99.90
24382;DHT22;12502;50.678;7.172;2023-04-03T22:52:22;3.40;99.90
24382;DHT22;12502;50.678;7.172;2023-04-03T22:57:23;3.20;99.90
24382;DHT22;12502;50.678;7.172;2023-04-03T23:02:25;3.20;99.90
24382;DHT22;12502;50.678;7.172;2023-04-03T23:07:27;3.10;99.90
24382;DHT22;12502;50.678;7.172;2023-04-03T23:12:28;3.00;99.90
24382;DHT22;12502;50.678;7.172;2023-04-03T23:17:30;2.80;99.90
24382;DHT22;12502;50.678;7.172;2023-04-03T23:22:32;2.80;99.90
24382;DHT22;12502;50.678;7.172;2023-04-03T23:27:34;2.80;99.90
24382;DHT22;12502;50.678;7.172;2023-04-03T23:32:36;2.70;99.90
24382;DHT22;12502;50.678;7.172;2023-04-03T23:37:38;2.60;99.90
24382;DHT22;12502;50.678;7.172;2023-04-03T23:42:40;2.40;99.90
24382;DHT22;12502;50.678;7.172;2023-04-03T23:47:42;2.30;99.90
24382;DHT22;12502;50.678;7.172;2023-04-03T23:52:44;2.20;99.90
24382;DHT22;12502;50.678;7.172;2023-04-03T23:57:46;2.00;99.90
